createdAt,value
2023-04-10T00:02:14.698Z,61.70
2023-04-10T00:04:43.047Z,56.00
2023-04-10T00:07:11.414Z,53.30
2023-04-10T00:09:39.536Z,51.80
2023-04-10T00:12:07.885Z,50.70
2023-04-10T00:14:36.181Z,49.40
2023-04-10T00:17:04.517Z,54.10
2023-04-10T00:19:32.727Z,57.90
2023-04-10T00:22:00.962Z,60.50
2023-04-10T00:24:29.174Z,62.30
2023-04-10T00:26:57.489Z,60.00
2023-04-10T00:29:25.787Z,55.40
2023-04-10T00:31:54.254Z,53.50
2023-04-10T00:34:22.501Z,52.10
2023-04-10T00:36:50.850Z,57.90
2023-04-10T00:39:19.965Z,61.90
2023-04-10T00:41:48.262Z,63.50
2023-04-10T00:44:16.796Z,65.00
2023-04-10T00:46:45.133Z,59.20
2023-04-10T00:49:13.611Z,55.80
2023-04-10T00:51:41.946Z,54.20
2023-04-10T00:54:11.579Z,52.90
2023-04-10T00:56:40.445Z,51.60
2023-04-10T00:59:08.715Z,50.70
2023-04-10T01:01:37.056Z,58.20
2023-04-10T01:04:05.973Z,61.10
2023-04-10T01:06:40.365Z,63.30
2023-04-10T01:09:25.026Z,64.30
2023-04-10T01:12:10.190Z,58.00
2023-04-10T01:14:47.383Z,55.80
2023-04-10T01:17:43.234Z,53.60
2023-04-10T01:20:24.230Z,53.00
2023-04-10T01:23:12.350Z,52.30
2023-04-10T01:25:49.674Z,59.60
2023-04-10T01:28:39.782Z,62.50
2023-04-10T01:31:10.994Z,64.70
2023-04-10T01:33:48.519Z,62.10
2023-04-10T01:36:24.730Z,57.20
2023-04-10T01:38:55.556Z,55.10
2023-04-10T01:41:25.426Z,54.30
2023-04-10T01:43:55.672Z,61.20
2023-04-10T01:46:25.743Z,63.90
2023-04-10T01:48:56.709Z,65.20
2023-04-10T01:51:25.314Z,66.30
2023-04-10T01:53:53.685Z,59.60
2023-04-10T01:56:26.285Z,57.00
2023-04-10T01:58:54.708Z,54.90
2023-04-10T02:01:29.599Z,53.50
2023-04-10T02:04:01.294Z,53.50
2023-04-10T02:07:00.500Z,60.30
2023-04-10T02:10:20.968Z,62.90
2023-04-10T02:12:56.077Z,65.20
2023-04-10T02:15:26.505Z,63.30
2023-04-10T02:17:57.050Z,57.80
2023-04-10T02:20:26.038Z,55.90
2023-04-10T02:22:54.797Z,54.00
2023-04-10T02:25:23.235Z,56.30
2023-04-10T02:27:51.341Z,61.40
2023-04-10T02:30:19.496Z,63.70
2023-04-10T02:32:47.789Z,64.90
2023-04-10T02:35:18.741Z,66.20
2023-04-10T02:37:47.248Z,59.50
2023-04-10T02:40:16.622Z,57.10
2023-04-10T02:42:54.880Z,55.50
2023-04-10T02:45:23.258Z,53.70
2023-04-10T02:47:52.379Z,52.50
2023-04-10T02:50:21.091Z,51.80
2023-04-10T02:52:49.244Z,50.80
2023-04-10T02:55:17.663Z,49.70
2023-04-10T02:57:45.845Z,54.00
2023-04-10T03:00:14.588Z,59.30
2023-04-10T03:03:15.313Z,60.90
2023-04-10T03:05:49.430Z,63.50
2023-04-10T03:08:22.185Z,64.00
2023-04-10T03:10:51.301Z,57.70
2023-04-10T03:13:19.361Z,55.30
2023-04-10T03:15:47.946Z,54.30
2023-04-10T03:18:16.287Z,61.40
2023-04-10T03:20:46.199Z,63.80
2023-04-10T03:23:14.460Z,65.80
2023-04-10T03:25:42.652Z,67.10
2023-04-10T03:28:12.126Z,62.40
2023-04-10T03:30:40.405Z,58.60
2023-04-10T03:33:09.580Z,56.60
2023-04-10T03:35:37.796Z,58.30
2023-04-10T03:38:08.129Z,63.60
2023-04-10T03:40:37.098Z,65.60
2023-04-10T03:43:07.494Z,67.00
2023-04-10T03:45:36.101Z,67.80
2023-04-10T03:48:04.518Z,60.60
2023-04-10T03:50:41.778Z,58.00
2023-04-10T03:53:10.738Z,56.20
2023-04-10T03:55:39.424Z,58.20
2023-04-10T03:58:07.691Z,64.10
2023-04-10T04:00:36.622Z,65.30
2023-04-10T04:03:23.102Z,67.40
2023-04-10T04:05:54.114Z,66.30
2023-04-10T04:08:45.122Z,60.20
2023-04-10T04:11:20.371Z,57.70
2023-04-10T04:14:04.298Z,56.10
2023-04-10T04:16:45.837Z,54.20
2023-04-10T04:19:26.964Z,52.70
2023-04-10T04:22:24.460Z,55.80
2023-04-10T04:25:04.625Z,61.10
2023-04-10T04:28:01.715Z,63.60
2023-04-10T04:30:35.921Z,65.60
2023-04-10T04:33:32.957Z,66.30
2023-04-10T04:36:11.076Z,58.80
2023-04-10T04:38:59.082Z,56.70
2023-04-10T04:41:27.430Z,57.00
2023-04-10T04:44:24.610Z,63.50
2023-04-10T04:47:13.133Z,65.70
2023-04-10T04:49:59.498Z,66.50
2023-04-10T04:52:44.778Z,67.00
2023-04-10T04:55:41.662Z,60.50
2023-04-10T04:58:21.401Z,58.10
2023-04-10T05:01:11.140Z,61.90
2023-04-10T05:04:14.752Z,66.10
2023-04-10T05:06:55.329Z,67.20
2023-04-10T05:09:40.223Z,69.60
2023-04-10T05:12:37.280Z,63.90
2023-04-10T05:15:21.825Z,59.30
2023-04-10T05:18:08.770Z,57.30
2023-04-10T05:20:57.596Z,57.30
2023-04-10T05:23:45.978Z,63.70
2023-04-10T05:26:40.453Z,66.10
2023-04-10T05:29:13.749Z,68.10
2023-04-10T05:32:07.791Z,69.30
2023-04-10T05:34:54.209Z,61.00
2023-04-10T05:37:40.618Z,58.40
2023-04-10T05:40:30.717Z,61.30
2023-04-10T05:43:15.274Z,66.40
2023-04-10T05:46:02.605Z,67.80
2023-04-10T05:49:00.494Z,69.00
2023-04-10T05:51:34.406Z,65.30
2023-04-10T05:54:28.952Z,60.70
2023-04-10T05:57:17.310Z,58.40
2023-04-10T06:00:09.198Z,56.00
2023-04-10T06:03:06.221Z,54.60
2023-04-10T06:05:40.280Z,60.50
2023-04-10T06:08:09.074Z,63.90
2023-04-10T06:10:37.365Z,65.40
2023-04-10T06:13:05.594Z,66.90
2023-04-10T06:15:33.977Z,68.70
2023-04-10T06:18:02.294Z,62.40
2023-04-10T06:20:30.777Z,58.90
2023-04-10T06:23:00.038Z,57.80
2023-04-10T06:25:28.216Z,64.10
2023-04-10T06:27:56.848Z,66.90
2023-04-10T06:30:25.006Z,68.00
2023-04-10T06:32:53.310Z,69.00
2023-04-10T06:35:22.132Z,69.70
2023-04-10T06:37:50.350Z,61.80
2023-04-10T06:40:18.824Z,59.00
2023-04-10T06:42:47.160Z,57.70
2023-04-10T06:45:38.468Z,64.20
2023-04-10T06:48:07.321Z,66.50
2023-04-10T06:50:35.173Z,67.70
2023-04-10T06:53:03.501Z,69.60
2023-04-10T06:55:31.965Z,68.30
2023-04-10T06:58:00.258Z,61.30
2023-04-10T07:00:28.567Z,58.60
2023-04-10T07:02:56.820Z,59.10
2023-04-10T07:05:25.188Z,64.50
2023-04-10T07:07:53.430Z,66.40
2023-04-10T07:10:21.662Z,68.60
2023-04-10T07:12:49.980Z,69.40
2023-04-10T07:15:18.193Z,64.70
2023-04-10T07:17:48.369Z,60.60
2023-04-10T07:20:16.615Z,58.50
2023-04-10T07:22:44.845Z,63.20
2023-04-10T07:25:13.135Z,66.60
2023-04-10T07:27:41.413Z,67.70
2023-04-10T07:30:11.721Z,70.30
2023-04-10T07:32:41.546Z,70.70
2023-04-10T07:35:10.289Z,64.40
2023-04-10T07:37:38.128Z,61.70
2023-04-10T07:40:08.442Z,61.20
2023-04-10T07:42:37.009Z,67.20
2023-04-10T07:45:05.575Z,69.50
2023-04-10T07:47:33.942Z,70.80
2023-04-10T07:50:02.278Z,71.40
2023-04-10T07:52:30.635Z,64.00
2023-04-10T07:54:58.678Z,61.40
2023-04-10T07:57:26.901Z,59.30
2023-04-10T07:59:55.075Z,57.90
2023-04-10T08:02:23.415Z,64.50
2023-04-10T08:04:52.001Z,67.20
2023-04-10T08:07:21.668Z,68.70
2023-04-10T08:09:50.165Z,70.40
2023-04-10T08:12:18.380Z,64.40
2023-04-10T08:14:46.782Z,61.10
2023-04-10T08:17:15.169Z,59.60
2023-04-10T08:19:43.699Z,58.10
2023-04-10T08:22:12.021Z,56.80
2023-04-10T08:24:40.245Z,59.50
2023-04-10T08:27:08.603Z,64.90
2023-04-10T08:29:36.852Z,66.30
2023-04-10T08:32:05.317Z,68.90
2023-04-10T08:34:33.632Z,65.40
2023-04-10T08:37:05.536Z,61.10
2023-04-10T08:39:36.413Z,59.20
2023-04-10T08:42:04.828Z,57.90
2023-04-10T08:44:32.948Z,56.50
2023-04-10T08:47:02.904Z,55.30
2023-04-10T08:49:56.752Z,60.90
2023-04-10T08:52:31.371Z,64.50
2023-04-10T08:55:03.231Z,67.40
2023-04-10T08:57:31.660Z,69.50
2023-04-10T09:00:04.135Z,69.20
2023-04-10T09:02:42.425Z,64.00
2023-04-10T09:05:14.338Z,61.00
2023-04-10T09:07:42.639Z,59.10
2023-04-10T09:10:11.050Z,65.70
2023-04-10T09:12:49.508Z,67.90
2023-04-10T09:15:17.685Z,71.20
2023-04-10T09:18:04.147Z,68.50
2023-04-10T09:20:33.049Z,64.10
2023-04-10T09:23:01.354Z,61.50
2023-04-10T09:25:37.378Z,59.20
2023-04-10T09:28:08.146Z,64.10
2023-04-10T09:30:43.196Z,68.00
2023-04-10T09:33:25.602Z,70.90
2023-04-10T09:35:54.339Z,72.40
2023-04-10T09:38:22.842Z,67.00
2023-04-10T09:40:52.350Z,63.80
2023-04-10T09:43:25.100Z,61.70
2023-04-10T09:45:56.202Z,67.70
2023-04-10T09:48:26.021Z,69.60
2023-04-10T09:50:54.724Z,71.60
2023-04-10T09:53:23.113Z,72.70
2023-04-10T09:55:51.688Z,67.20
2023-04-10T09:58:20.023Z,63.90
2023-04-10T10:00:49.641Z,61.00
2023-04-10T10:03:19.904Z,66.10
2023-04-10T10:05:52.359Z,68.80
2023-04-10T10:08:22.011Z,70.90
2023-04-10T10:10:55.431Z,73.00
2023-04-10T10:13:35.405Z,68.40
2023-04-10T10:16:25.040Z,63.90
2023-04-10T10:19:11.041Z,61.20
2023-04-10T10:21:39.626Z,67.20
2023-04-10T10:24:10.813Z,69.60
2023-04-10T10:26:42.820Z,71.90
2023-04-10T10:29:11.151Z,72.40
2023-04-10T10:31:39.472Z,66.20
2023-04-10T10:34:07.815Z,62.70
2023-04-10T10:36:37.579Z,61.00
2023-04-10T10:39:08.649Z,66.40
2023-04-10T10:41:45.581Z,69.60
2023-04-10T10:45:07.414Z,71.00
2023-04-10T10:47:45.236Z,66.00
2023-04-10T10:50:13.726Z,62.40
2023-04-10T10:52:45.633Z,61.00
2023-04-10T10:55:23.085Z,59.50
2023-04-10T10:57:52.063Z,58.80
2023-04-10T11:00:23.564Z,57.40
2023-04-10T11:03:10.090Z,62.40
2023-04-10T11:05:52.407Z,67.20
2023-04-10T11:08:41.823Z,70.00
2023-04-10T11:11:14.837Z,66.50
2023-04-10T11:13:44.250Z,62.80
2023-04-10T11:16:13.761Z,60.00
2023-04-10T11:18:55.872Z,64.20
2023-04-10T11:21:31.075Z,66.70
2023-04-10T11:23:59.119Z,68.60
2023-04-10T11:26:36.556Z,70.10
2023-04-10T11:29:14.038Z,64.80
2023-04-10T11:31:43.574Z,59.30
2023-04-10T11:34:12.370Z,61.20
2023-04-10T11:36:42.501Z,65.00
2023-04-10T11:39:14.106Z,66.80
2023-04-10T11:41:46.228Z,68.10
2023-04-10T11:44:27.825Z,68.90
2023-04-10T11:50:14.679Z,57.70
2023-04-10T11:52:42.918Z,61.60
2023-04-10T11:55:11.297Z,64.40
2023-04-10T11:57:39.631Z,66.90
2023-04-10T12:00:08.676Z,68.40
2023-04-10T12:02:36.586Z,63.20
2023-04-10T12:05:05.204Z,59.80
2023-04-10T12:07:33.930Z,57.90
2023-04-10T12:10:02.077Z,62.90
2023-04-10T12:12:37.358Z,65.00
2023-04-10T12:15:28.379Z,66.60
2023-04-10T12:17:57.127Z,62.60
2023-04-10T12:20:25.577Z,58.50
2023-04-10T12:22:55.973Z,56.90
2023-04-10T12:25:27.106Z,55.40
2023-04-10T12:27:55.284Z,54.20
2023-04-10T12:30:23.661Z,53.30
2023-04-10T12:32:53.133Z,52.20
2023-04-10T12:35:21.574Z,51.60
2023-04-10T12:37:53.556Z,50.90
2023-04-10T12:40:22.142Z,50.80
2023-04-10T12:42:50.264Z,50.10
2023-04-10T12:45:18.515Z,49.30
2023-04-10T12:47:51.209Z,49.00
2023-04-10T12:50:20.934Z,48.30
2023-04-10T12:53:09.220Z,47.90
2023-04-10T12:55:37.583Z,55.10
2023-04-10T12:58:19.473Z,58.70
2023-04-10T13:00:48.917Z,61.70
2023-04-10T13:03:17.292Z,61.60
2023-04-10T13:05:45.748Z,56.60
2023-04-10T13:08:14.321Z,54.20
2023-04-10T13:10:42.610Z,56.30
2023-04-10T13:13:11.169Z,61.10
2023-04-10T13:15:39.854Z,63.80
2023-04-10T13:18:08.170Z,65.50
2023-04-10T13:20:37.232Z,59.30
2023-04-10T13:23:05.663Z,56.60
2023-04-10T13:25:35.547Z,54.80
2023-04-10T13:28:03.788Z,53.20
2023-04-10T13:30:32.120Z,58.40
2023-04-10T13:33:00.354Z,62.20
2023-04-10T13:35:28.685Z,64.90
2023-04-10T13:37:56.735Z,62.50
2023-04-10T13:40:24.905Z,58.20
2023-04-10T13:42:53.263Z,55.70
2023-04-10T13:45:21.533Z,54.20
2023-04-10T13:47:49.764Z,52.70
2023-04-10T13:50:18.403Z,51.90
2023-04-10T13:52:46.735Z,51.50
2023-04-10T13:55:14.986Z,50.50
2023-04-10T13:57:43.294Z,50.10
2023-04-10T14:00:13.420Z,49.50
2023-04-10T14:02:41.523Z,54.50
2023-04-10T14:05:10.656Z,59.80
2023-04-10T14:07:38.756Z,62.20
2023-04-10T14:10:08.027Z,58.20
2023-04-10T14:12:37.594Z,55.00
2023-04-10T14:15:06.766Z,53.80
2023-04-10T14:17:35.014Z,52.40
2023-04-10T14:20:03.294Z,52.20
2023-04-10T14:22:31.575Z,51.10
2023-04-10T14:25:11.736Z,50.40
2023-04-10T14:27:41.147Z,50.10
2023-04-10T14:30:10.362Z,49.70
2023-04-10T14:32:41.386Z,49.20
2023-04-10T14:35:10.170Z,49.20
2023-04-10T14:37:39.204Z,49.50
2023-04-10T14:40:08.234Z,49.10
2023-04-10T14:42:36.388Z,48.80
2023-04-10T14:45:04.808Z,48.30
2023-04-10T14:47:33.513Z,47.80
2023-04-10T14:50:01.954Z,47.60
2023-04-10T14:52:30.396Z,47.60
2023-04-10T14:54:58.521Z,51.00
2023-04-10T14:57:26.820Z,55.80
2023-04-10T14:59:55.051Z,58.80
2023-04-10T15:02:23.297Z,61.40
2023-04-10T15:04:51.916Z,57.70
2023-04-10T15:07:19.986Z,54.50
2023-04-10T15:09:48.629Z,53.90
2023-04-10T15:12:16.492Z,60.10
2023-04-10T15:14:44.780Z,62.80
2023-04-10T15:17:15.827Z,63.80
2023-04-10T15:19:44.155Z,59.60
2023-04-10T15:22:12.532Z,55.60
2023-04-10T15:24:50.058Z,54.20
2023-04-10T15:27:22.306Z,54.60
2023-04-10T15:29:50.781Z,53.60
2023-04-10T15:32:19.070Z,52.50
2023-04-10T15:34:47.386Z,51.30
2023-04-10T15:37:15.593Z,50.70
2023-04-10T15:39:43.780Z,49.60
2023-04-10T15:42:12.323Z,49.00
2023-04-10T15:44:40.542Z,48.60
2023-04-10T15:47:08.953Z,48.00
2023-04-10T15:49:38.729Z,47.90
2023-04-10T15:52:07.662Z,47.50
2023-04-10T15:54:35.689Z,46.80
2023-04-10T15:57:04.559Z,47.10
2023-04-10T15:59:33.239Z,46.40
2023-04-10T16:02:01.551Z,46.50
2023-04-10T16:04:30.722Z,46.40
2023-04-10T16:06:59.073Z,45.80
2023-04-10T16:09:27.384Z,45.80
2023-04-10T16:11:56.070Z,45.60
2023-04-10T16:14:24.528Z,45.40
2023-04-10T16:16:52.774Z,45.50
2023-04-10T16:19:21.319Z,45.30
2023-04-10T16:21:49.641Z,45.40
2023-04-10T16:24:17.900Z,45.20
2023-04-10T16:26:46.203Z,45.10
2023-04-10T16:29:14.558Z,44.90
2023-04-10T16:31:42.960Z,45.00
2023-04-10T16:34:11.288Z,45.20
2023-04-10T16:36:39.554Z,44.90
2023-04-10T16:39:08.021Z,44.50
2023-04-10T16:41:36.169Z,44.40
2023-04-10T16:44:04.462Z,44.50
2023-04-10T16:46:32.798Z,45.20
2023-04-10T16:49:01.193Z,44.70
2023-04-10T16:51:32.593Z,44.50
2023-04-10T16:54:00.901Z,44.10
2023-04-10T16:56:29.118Z,43.90
2023-04-10T16:58:57.637Z,43.50
2023-04-10T17:01:26.003Z,43.40
2023-04-10T17:03:55.175Z,43.60
2023-04-10T17:06:23.485Z,43.50
2023-04-10T17:08:51.663Z,43.30
2023-04-10T17:11:21.325Z,43.30
2023-04-10T17:13:49.679Z,43.60
2023-04-10T17:16:17.835Z,43.70
2023-04-10T17:18:46.153Z,43.50
2023-04-10T17:21:14.895Z,43.00
2023-04-10T17:23:43.036Z,43.20
2023-04-10T17:26:15.773Z,43.10
2023-04-10T17:28:44.939Z,43.50
2023-04-10T17:31:14.124Z,44.40
2023-04-10T17:33:42.739Z,46.10
2023-04-10T17:36:12.635Z,46.20
2023-04-10T17:38:42.415Z,46.30
2023-04-10T17:41:14.365Z,46.40
2023-04-10T17:43:42.704Z,46.50
2023-04-10T17:46:14.931Z,46.30
2023-04-10T17:48:44.286Z,46.40
2023-04-10T17:51:12.718Z,46.00
2023-04-10T17:53:40.948Z,45.70
2023-04-10T17:56:17.205Z,45.30
2023-04-10T17:58:45.584Z,44.90
2023-04-10T18:01:21.466Z,44.60
2023-04-10T18:03:49.849Z,44.20
2023-04-10T18:06:17.976Z,43.90
2023-04-10T18:08:46.201Z,43.90
2023-04-10T18:11:14.535Z,43.70
2023-04-10T18:13:42.830Z,47.20
2023-04-10T18:16:11.305Z,52.80
2023-04-10T18:18:39.472Z,55.90
2023-04-10T18:21:08.745Z,53.30
2023-04-10T18:23:36.900Z,49.40
2023-04-10T18:26:04.989Z,48.10
2023-04-10T18:28:33.372Z,46.80
2023-04-10T18:31:02.072Z,46.10
2023-04-10T18:33:30.580Z,45.60
2023-04-10T18:35:58.768Z,45.30
2023-04-10T18:38:27.554Z,44.90
2023-04-10T18:40:58.312Z,44.40
2023-04-10T18:43:27.148Z,44.10
2023-04-10T18:45:55.130Z,43.90
2023-04-10T18:48:23.549Z,44.10
2023-04-10T18:50:53.167Z,51.70
2023-04-10T18:53:22.273Z,55.10
2023-04-10T18:55:55.165Z,57.50
2023-04-10T18:58:23.489Z,51.50
2023-04-10T19:00:51.692Z,49.10
2023-04-10T19:03:21.133Z,47.90
2023-04-10T19:05:49.578Z,47.30
2023-04-10T19:08:17.833Z,46.50
2023-04-10T19:10:46.160Z,46.00
2023-04-10T19:13:14.512Z,45.10
2023-04-10T19:15:44.165Z,44.80
2023-04-10T19:18:14.068Z,44.40
2023-04-10T19:20:50.758Z,49.50
2023-04-10T19:23:21.753Z,54.30
2023-04-10T19:25:53.808Z,56.90
2023-04-10T19:28:23.741Z,54.80
2023-04-10T19:30:52.978Z,50.60
2023-04-10T19:33:21.188Z,48.90
2023-04-10T19:35:49.529Z,47.80
2023-04-10T19:38:18.090Z,47.10
2023-04-10T19:40:46.293Z,46.20
2023-04-10T19:43:14.580Z,45.60
2023-04-10T19:45:42.768Z,45.20
2023-04-10T19:48:14.104Z,45.10
2023-04-10T19:50:42.542Z,52.60
2023-04-10T19:53:10.760Z,55.70
2023-04-10T19:55:39.147Z,58.10
2023-04-10T19:58:10.514Z,52.20
2023-04-10T20:00:41.754Z,49.50
2023-04-10T20:03:10.116Z,48.30
2023-04-10T20:05:38.359Z,47.30
2023-04-10T20:08:06.549Z,46.60
2023-04-10T20:10:35.412Z,45.90
2023-04-10T20:13:03.149Z,45.40
2023-04-10T20:15:31.615Z,44.80
2023-04-10T20:18:00.053Z,44.40
2023-04-10T20:20:28.425Z,43.90
2023-04-10T20:22:56.632Z,43.70
2023-04-10T20:25:28.032Z,49.30
2023-04-10T20:27:56.433Z,53.60
2023-04-10T20:30:24.778Z,56.40
2023-04-10T20:32:53.006Z,55.80
2023-04-10T20:35:21.379Z,50.50
2023-04-10T20:37:49.726Z,48.70
2023-04-10T20:40:18.321Z,47.50
2023-04-10T20:42:46.488Z,46.60
2023-04-10T20:45:14.993Z,45.90
2023-04-10T20:47:43.392Z,52.80
2023-04-10T20:50:13.025Z,55.80
2023-04-10T20:52:41.364Z,58.50
2023-04-10T20:55:10.087Z,54.40
2023-04-10T20:57:38.168Z,50.80
2023-04-10T21:00:07.303Z,49.20
2023-04-10T21:02:35.884Z,48.10
2023-04-10T21:05:04.146Z,47.50
2023-04-10T21:07:32.694Z,46.60
2023-04-10T21:10:00.808Z,45.80
2023-04-10T21:13:09.043Z,47.20
2023-04-10T21:15:37.414Z,53.20
2023-04-10T21:20:40.957Z,52.00
2023-04-10T21:23:09.100Z,56.30
2023-04-10T21:25:37.356Z,54.80
2023-04-10T21:28:06.141Z,51.10
2023-04-10T21:30:36.688Z,50.10
2023-04-10T21:33:05.059Z,49.60
2023-04-10T21:35:33.381Z,49.30
2023-04-10T21:38:02.317Z,48.80
2023-04-10T21:40:31.023Z,48.20
2023-04-10T21:42:59.398Z,47.30
2023-04-10T21:45:27.577Z,52.80
2023-04-10T21:47:55.930Z,56.40
2023-04-10T21:50:25.889Z,59.30
2023-04-10T21:52:54.272Z,62.20
2023-04-10T21:55:22.520Z,56.90
2023-04-10T21:57:50.881Z,52.30
2023-04-10T22:00:20.644Z,51.30
2023-04-10T22:02:52.700Z,56.80
2023-04-10T22:05:21.242Z,59.30
2023-04-10T22:07:49.337Z,60.10
2023-04-10T22:10:17.807Z,54.90
2023-04-10T22:12:48.492Z,52.10
2023-04-10T22:15:17.504Z,50.60
2023-04-10T22:17:46.164Z,49.40
2023-04-10T22:20:14.239Z,48.60
2023-04-10T22:22:42.537Z,47.90
2023-04-10T22:25:10.824Z,47.20
2023-04-10T22:27:39.096Z,46.90
2023-04-10T22:30:08.173Z,46.30
2023-04-10T22:32:36.536Z,45.90
2023-04-10T22:35:05.084Z,45.50
2023-04-10T22:37:33.720Z,44.80
2023-04-10T22:40:01.819Z,45.50
2023-04-10T22:42:31.874Z,52.40
2023-04-10T22:45:00.515Z,55.50
2023-04-10T22:47:28.694Z,57.70
2023-04-10T22:49:56.901Z,51.80
2023-04-10T22:52:25.094Z,49.50
2023-04-10T22:54:53.312Z,48.50
2023-04-10T22:57:21.436Z,47.70
2023-04-10T22:59:49.755Z,47.00
2023-04-10T23:02:18.009Z,46.70
2023-04-10T23:04:46.517Z,46.20
2023-04-10T23:07:14.915Z,45.60
2023-04-10T23:09:43.196Z,45.20
2023-04-10T23:12:11.319Z,45.10
2023-04-10T23:14:39.652Z,44.70
2023-04-10T23:18:17.446Z,43.60
2023-04-10T23:20:46.679Z,49.80
2023-04-10T23:23:14.779Z,54.10
2023-04-10T23:25:43.434Z,56.80
2023-04-10T23:28:11.488Z,51.10
2023-04-10T23:30:40.144Z,49.10
2023-04-10T23:33:08.150Z,47.90
2023-04-10T23:35:36.790Z,48.60
2023-04-10T23:38:04.961Z,55.60
2023-04-10T23:40:33.217Z,58.30
2023-04-10T23:43:01.576Z,59.10
2023-04-10T23:45:29.780Z,53.40
2023-04-10T23:47:57.988Z,51.10
2023-04-10T23:50:26.255Z,49.90
2023-04-10T23:52:54.448Z,48.90
2023-04-10T23:55:23.137Z,48.10
2023-04-10T23:57:50.995Z,47.10
